Marble Falls' Hourly Summary for Sunday, May 13, 2018
Hour Temp
(f)
RH
(%)
Solar Rad.
(MJ/m2)
Rainfall
(in)
Wind
(mph)
5/13/2018 12:00 AM 78 73 0 0 8.5
5/13/2018 1:00 AM 76 78 0 0 7.3
5/13/2018 2:00 AM 75 79 0 0 6.11
5/13/2018 3:00 AM 74 82 0 0 2.49
5/13/2018 4:00 AM 74 83 0 0 2.05
5/13/2018 5:00 AM 73 86 0 0 2.05
5/13/2018 6:00 AM 72 92 0 0 0.24
5/13/2018 7:00 AM 70 92 0.11 0 1.04
5/13/2018 8:00 AM 74 92 0.51 0 5.19
5/13/2018 9:00 AM 77 83 1.09 0 5.19
5/13/2018 10:00 AM 80 74 2.11 0 7.32
5/13/2018 11:00 AM 82 62 2.32 0 7.32
5/13/2018 12:00 PM 84 55 2.53 0 7.68
5/13/2018 1:00 PM 86 50 2.58 0 7.68
5/13/2018 2:00 PM 87 45 2.58 0 7.89
5/13/2018 3:00 PM 88 45 2.05 0 7.89
5/13/2018 4:00 PM 88 43 2.09 0 8.23
5/13/2018 5:00 PM 89 42 2.09 0 8.23
5/13/2018 6:00 PM 89 42 1.75 0 6.45
5/13/2018 7:00 PM 89 44 1.19 0 6.19
5/13/2018 8:00 PM 87 48 0.42 0 6.19
5/13/2018 9:00 PM 85 54 0.02 0 5.17
5/13/2018 10:00 PM 82 60 0 0 8
5/13/2018 11:00 PM 81 64 0 0 9.71
Data Summary 80 65 23.44 0.00 6.00